Time;durP1;ratioP1;P1;durP2;ratioP2;P2;SDS_P1;SDS_P2;PMS_P1;PMS_P2;Temp;Humidity;BMP_temperature;BMP_pressure;BME280_temperature;BME280_humidity;BME280_pressure;Samples;Min_cycle;Max_cycle;Signal;HPM_P1;HPM_P2
2023/04/05 00:01:25;;;;;;;7.32;2.88;;;1.50;99.90;;;;;;5024004;28;20496;-73
2023/04/05 00:03:56;;;;;;;7.05;2.88;;;1.50;99.90;;;;;;5032247;28;20053;-72
2023/04/05 00:06:27;;;;;;;7.63;3.05;;;1.50;99.90;;;;;;5026450;28;20134;-72
2023/04/05 00:09:02;;;;;;;8.23;2.90;;;1.40;99.90;;;;;;5026033;28;20091;-72
2023/04/05 00:11:30;;;;;;;7.93;3.03;;;1.40;99.90;;;;;;5010131;28;20641;-72
2023/04/05 00:13:58;;;;;;;7.88;3.05;;;1.40;99.90;;;;;;5028190;28;20053;-73
2023/04/05 00:16:25;;;;;;;8.15;3.10;;;1.40;99.90;;;;;;5022598;28;20119;-72
2023/04/05 00:18:51;;;;;;;8.63;3.22;;;1.40;99.90;;;;;;5020718;28;20042;-73
2023/04/05 00:21:20;;;;;;;9.85;2.97;;;1.30;99.90;;;;;;5030870;28;20049;-73
2023/04/05 00:23:47;;;;;;;7.80;3.38;;;1.30;99.90;;;;;;5032388;28;20052;-73
2023/04/05 00:26:13;;;;;;;7.85;3.90;;;1.80;99.90;;;;;;5007159;28;20077;-73
2023/04/05 00:28:39;;;;;;;8.63;4.40;;;1.30;99.90;;;;;;5025190;28;20083;-73
2023/04/05 00:31:05;;;;;;;9.45;3.40;;;1.90;99.90;;;;;;5019416;28;20133;-73
2023/04/05 00:33:31;;;;;;;7.97;3.20;;;1.20;99.90;;;;;;5023236;28;20055;-73
2023/04/05 00:35:57;;;;;;;9.15;3.10;;;1.60;99.90;;;;;;5035412;28;20426;-72
2023/04/05 00:38:22;;;;;;;8.40;3.38;;;1.80;99.90;;;;;;5035864;28;20040;-72
2023/04/05 00:40:48;;;;;;;7.50;3.53;;;1.90;99.90;;;;;;5014392;28;20053;-72
2023/04/05 00:43:14;;;;;;;6.63;3.10;;;1.10;99.90;;;;;;5031363;28;20135;-72
2023/04/05 00:45:41;;;;;;;8.85;3.42;;;1.30;99.90;;;;;;5033398;28;20051;-72
2023/04/05 00:48:07;;;;;;;9.45;3.15;;;1.00;99.90;;;;;;5028366;28;20080;-72
2023/04/05 00:50:37;;;;;;;8.52;3.42;;;1.00;99.90;;;;;;5033806;28;20095;-73
2023/04/05 00:53:04;;;;;;;8.90;3.50;;;0.90;99.90;;;;;;5029121;28;20037;-73
2023/04/05 00:55:32;;;;;;;9.48;3.30;;;0.90;99.90;;;;;;5014864;28;20033;-73
2023/04/05 00:57:59;;;;;;;9.25;3.58;;;0.90;99.90;;;;;;5019580;28;20426;-73
2023/04/05 01:00:26;;;;;;;8.25;3.33;;;0.80;99.90;;;;;;5021870;28;20084;-72
2023/04/05 01:02:56;;;;;;;7.60;3.30;;;1.10;99.90;;;;;;5030350;28;20068;-73
2023/04/05 01:05:33;;;;;;;8.27;3.35;;;0.80;99.90;;;;;;5029275;28;20658;-73
2023/04/05 01:08:14;;;;;;;10.20;3.25;;;0.80;99.90;;;;;;5019783;28;20053;-72
2023/04/05 01:10:45;;;;;;;9.95;3.60;;;0.80;99.90;;;;;;5007271;28;20712;-72
2023/04/05 01:13:11;;;;;;;9.47;3.87;;;0.70;99.90;;;;;;5030133;28;20059;-73
2023/04/05 01:15:37;;;;;;;7.97;3.20;;;1.80;99.90;;;;;;5028389;28;20064;-72
2023/04/05 01:18:03;;;;;;;8.05;3.33;;;0.80;99.90;;;;;;5006437;28;20128;-72
2023/04/05 01:20:36;;;;;;;9.73;3.55;;;0.70;99.90;;;;;;5022881;28;20050;-73
2023/04/05 01:23:29;;;;;;;9.68;3.42;;;0.60;99.90;;;;;;5008081;28;20081;-72
2023/04/05 01:26:07;;;;;;;10.20;3.67;;;0.60;99.90;;;;;;5052787;28;20489;-72
2023/04/05 01:29:09;;;;;;;7.05;3.40;;;0.60;99.90;;;;;;5031917;28;20122;-72
2023/04/05 01:32:13;;;;;;;8.88;3.33;;;0.60;99.90;;;;;;5023533;28;20041;-72
2023/04/05 01:35:11;;;;;;;10.43;3.67;;;0.60;99.90;;;;;;5034343;28;20127;-73
2023/04/05 01:37:38;;;;;;;6.85;3.28;;;0.80;99.90;;;;;;5023109;28;20478;-72
2023/04/05 01:40:05;;;;;;;9.20;3.70;;;0.50;99.90;;;;;;5030489;28;20583;-73
2023/04/05 01:42:31;;;;;;;10.52;3.72;;;0.50;99.90;;;;;;5039812;28;20060;-73
2023/04/05 01:44:57;;;;;;;11.48;4.03;;;0.50;99.90;;;;;;5040308;28;20541;-73
2023/04/05 01:47:23;;;;;;;9.55;4.00;;;0.40;99.90;;;;;;5039463;28;20649;-72
2023/04/05 01:49:49;;;;;;;10.07;4.20;;;0.40;99.90;;;;;;5036067;28;20041;-72
2023/04/05 01:52:15;;;;;;;11.07;3.63;;;0.50;99.90;;;;;;5040979;28;20041;-73
2023/04/05 01:54:40;;;;;;;10.70;4.53;;;0.40;99.90;;;;;;5035857;28;20139;-72
2023/04/05 01:57:06;;;;;;;10.25;4.10;;;0.20;99.90;;;;;;5037900;28;20056;-72
2023/04/05 01:59:35;;;;;;;8.45;3.42;;;0.30;99.90;;;;;;5038576;28;20041;-72
2023/04/05 02:02:00;;;;;;;11.23;4.38;;;0.30;99.90;;;;;;5038795;28;20063;-72
2023/04/05 02:04:26;;;;;;;9.18;3.97;;;0.30;99.90;;;;;;5042093;28;20041;-71
2023/04/05 02:06:52;;;;;;;9.98;4.22;;;0.30;99.90;;;;;;5032080;28;20513;-71
2023/04/05 02:09:18;;;;;;;9.27;4.00;;;0.30;99.90;;;;;;5025181;28;20144;-70
2023/04/05 02:11:43;;;;;;;8.07;3.97;;;0.20;99.90;;;;;;5027175;28;20042;-71
2023/04/05 02:14:09;;;;;;;8.45;4.18;;;0.20;99.90;;;;;;5034155;28;20079;-72
2023/04/05 02:16:35;;;;;;;12.77;4.10;;;0.70;99.90;;;;;;5034058;28;20057;-71
2023/04/05 02:19:01;;;;;;;10.85;4.35;;;0.80;99.90;;;;;;5025175;28;20075;-71
2023/04/05 02:21:26;;;;;;;10.32;4.72;;;0.20;99.90;;;;;;5034944;28;20465;-72
2023/04/05 02:23:53;;;;;;;10.40;3.90;;;0.20;99.90;;;;;;5019555;28;20294;-71
2023/04/05 02:26:20;;;;;;;10.88;4.70;;;0.20;99.90;;;;;;5030883;28;20049;-71
2023/04/05 02:28:46;;;;;;;8.90;4.07;;;0.10;99.90;;;;;;5033397;28;20069;-71
2023/04/05 02:31:12;;;;;;;9.02;3.80;;;1.10;99.90;;;;;;5037818;28;20291;-71
2023/04/05 02:33:39;;;;;;;13.85;4.32;;;0.10;99.90;;;;;;5041529;28;20049;-71
2023/04/05 02:36:08;;;;;;;9.82;4.00;;;0.10;99.90;;;;;;5039694;28;20052;-71
2023/04/05 02:38:34;;;;;;;9.63;3.85;;;0.10;99.90;;;;;;5032497;28;20091;-71
2023/04/05 02:40:59;;;;;;;9.55;4.15;;;0.00;99.90;;;;;;5033399;28;20557;-71
2023/04/05 02:43:26;;;;;;;9.88;3.92;;;0.00;99.90;;;;;;5038715;28;20259;-71
2023/04/05 02:45:51;;;;;;;11.60;4.15;;;0.10;99.90;;;;;;5041025;28;20033;-71
2023/04/05 02:48:17;;;;;;;13.45;4.47;;;0.00;99.90;;;;;;5039723;28;20466;-71
2023/04/05 02:50:48;;;;;;;9.15;3.85;;;-0.10;99.90;;;;;;5036218;28;20711;-71
2023/04/05 02:53:14;;;;;;;7.32;3.45;;;-0.10;99.90;;;;;;5035079;28;20120;-71
2023/04/05 02:55:41;;;;;;;9.73;3.85;;;-0.10;99.90;;;;;;5038217;28;20132;-71
2023/04/05 02:58:07;;;;;;;12.07;4.30;;;-0.10;99.90;;;;;;5037445;28;20048;-70
2023/04/05 03:00:33;;;;;;;8.50;4.03;;;0.00;99.90;;;;;;5023088;28;20499;-71
2023/04/05 03:02:59;;;;;;;9.25;3.88;;;-0.20;99.90;;;;;;5036484;28;20037;-71
2023/04/05 03:05:25;;;;;;;9.63;4.07;;;-0.20;99.90;;;;;;5040022;28;20098;-71
2023/04/05 03:07:50;;;;;;;11.93;4.15;;;-0.20;99.90;;;;;;5038829;28;20607;-71
2023/04/05 03:10:17;;;;;;;8.05;3.67;;;0.20;99.90;;;;;;5036907;28;20661;-72
2023/04/05 03:12:45;;;;;;;11.18;4.03;;;-0.30;99.90;;;;;;5035878;28;20074;-71
2023/04/05 03:15:10;;;;;;;9.95;4.20;;;-0.30;99.90;;;;;;5039231;28;20433;-71
2023/04/05 03:17:36;;;;;;;9.82;3.33;;;-0.30;99.90;;;;;;5033819;28;20098;-71
2023/04/05 03:20:07;;;;;;;9.27;4.00;;;-0.30;99.90;;;;;;5036757;28;20083;-71
2023/04/05 03:22:33;;;;;;;9.70;4.43;;;-0.30;99.90;;;;;;5041117;28;20044;-71
2023/04/05 03:24:59;;;;;;;9.90;3.65;;;-0.30;99.90;;;;;;5037972;28;20068;-71
2023/04/05 03:27:26;;;;;;;12.93;4.18;;;-0.40;99.90;;;;;;5040764;28;20608;-71
2023/04/05 03:29:51;;;;;;;10.52;3.53;;;-0.30;99.90;;;;;;5031796;28;20037;-71
2023/04/05 03:32:17;;;;;;;12.55;4.28;;;0.30;99.90;;;;;;5037692;28;20051;-71
2023/04/05 03:34:42;;;;;;;12.23;4.60;;;-0.40;99.90;;;;;;5040468;28;20044;-71
2023/04/05 03:37:08;;;;;;;9.32;3.78;;;-0.30;99.90;;;;;;5039982;28;20398;-71
2023/04/05 03:39:35;;;;;;;9.85;4.25;;;-0.40;99.90;;;;;;5037614;28;20103;-71
2023/04/05 03:42:01;;;;;;;9.20;3.83;;;-0.40;99.90;;;;;;5032751;28;20049;-72
2023/04/05 03:44:26;;;;;;;11.30;3.90;;;-0.50;99.90;;;;;;5041089;28;20409;-71
2023/04/05 03:46:52;;;;;;;11.07;4.13;;;-0.50;99.90;;;;;;5042192;28;20323;-71
2023/04/05 03:49:18;;;;;;;10.02;3.95;;;-0.50;99.90;;;;;;5031260;28;20045;-71
2023/04/05 03:51:45;;;;;;;9.77;4.00;;;-0.50;99.90;;;;;;5042286;28;20485;-71
2023/04/05 03:54:11;;;;;;;9.02;3.90;;;-0.50;99.90;;;;;;5035377;28;20405;-71
2023/04/05 03:56:37;;;;;;;11.25;5.25;;;-0.50;99.90;;;;;;5035880;28;20121;-70
2023/04/05 03:59:06;;;;;;;10.40;4.40;;;-0.60;99.90;;;;;;5036231;28;20037;-70
2023/04/05 04:01:32;;;;;;;9.25;4.10;;;-0.10;99.90;;;;;;5036196;28;20492;-71
2023/04/05 04:03:59;;;;;;;9.45;4.03;;;-0.50;99.90;;;;;;5041933;28;20123;-71
2023/04/05 04:06:25;;;;;;;11.40;4.55;;;-0.60;99.90;;;;;;5041703;28;20052;-71
2023/04/05 04:08:51;;;;;;;9.32;4.68;;;-0.60;99.90;;;;;;5036862;28;20096;-70
2023/04/05 04:11:17;;;;;;;11.77;4.10;;;-0.50;99.90;;;;;;5023130;28;20135;-70
2023/04/05 04:13:42;;;;;;;10.80;4.13;;;-0.60;99.90;;;;;;5044306;28;20489;-70
2023/04/05 04:16:08;;;;;;;12.85;4.22;;;-0.70;99.90;;;;;;5043428;28;20076;-70
2023/04/05 04:18:34;;;;;;;9.23;4.53;;;-0.70;99.90;;;;;;5042689;28;20123;-70
2023/04/05 04:21:05;;;;;;;9.52;5.22;;;-0.40;99.90;;;;;;5038997;28;20040;-70
2023/04/05 04:23:33;;;;;;;9.48;4.70;;;-0.70;99.90;;;;;;5035139;28;20449;-71
2023/04/05 04:26:00;;;;;;;10.25;4.22;;;-0.80;99.90;;;;;;5037383;28;20041;-70
2023/04/05 04:28:28;;;;;;;10.68;4.75;;;0.30;99.90;;;;;;5020474;28;20045;-70
2023/04/05 04:30:53;;;;;;;8.45;4.63;;;-0.80;99.90;;;;;;5037096;28;20481;-72
2023/04/05 04:33:19;;;;;;;10.88;5.10;;;-0.80;99.90;;;;;;5021844;28;20041;-70
2023/04/05 04:35:47;;;;;;;11.80;4.75;;;-0.80;99.90;;;;;;5007482;28;20861;-70
2023/04/05 04:38:19;;;;;;;11.73;4.97;;;-0.80;99.90;;;;;;5019730;28;20426;-71
2023/04/05 04:40:46;;;;;;;9.77;4.60;;;-0.80;99.90;;;;;;5023896;28;20046;-70
2023/04/05 04:43:16;;;;;;;12.00;4.65;;;-0.80;99.90;;;;;;5023944;28;20056;-70
2023/04/05 04:45:47;;;;;;;8.90;4.65;;;-0.80;99.90;;;;;;5022578;28;20157;-70
2023/04/05 04:48:15;;;;;;;10.57;5.30;;;-0.90;99.90;;;;;;5021281;28;20127;-71
2023/04/05 04:50:43;;;;;;;11.63;4.90;;;-0.90;99.90;;;;;;5020026;28;20046;-70
2023/04/05 04:53:10;;;;;;;12.80;4.93;;;-0.90;99.90;;;;;;5019932;28;20132;-70
2023/04/05 04:55:35;;;;;;;11.15;5.28;;;-0.90;99.90;;;;;;5024032;28;20048;-70
2023/04/05 04:58:08;;;;;;;11.07;4.90;;;-0.90;99.90;;;;;;5023557;28;20502;-70
2023/04/05 05:00:35;;;;;;;9.70;4.80;;;-0.90;99.90;;;;;;5021615;28;20738;-70
2023/04/05 05:03:02;;;;;;;13.48;4.90;;;-0.90;99.90;;;;;;5022442;28;20919;-70
2023/04/05 05:05:27;;;;;;;12.80;5.30;;;-1.00;99.90;;;;;;5016287;28;20954;-69
2023/04/05 05:07:54;;;;;;;11.50;4.85;;;-0.40;99.90;;;;;;5016698;28;20056;-70
2023/04/05 05:10:20;;;;;;;11.63;5.20;;;-1.10;99.90;;;;;;5019497;28;20045;-70
2023/04/05 05:12:47;;;;;;;13.50;5.07;;;-1.00;99.90;;;;;;5022503;28;20095;-70
2023/04/05 05:15:13;;;;;;;12.55;4.80;;;-1.00;99.90;;;;;;5016524;28;20140;-71
2023/04/05 05:17:39;;;;;;;16.23;5.15;;;-1.00;99.90;;;;;;5018286;28;20103;-71
2023/04/05 05:20:09;;;;;;;13.95;5.40;;;-1.00;99.90;;;;;;4995328;28;20045;-71
2023/04/05 05:22:39;;;;;;;11.85;5.30;;;-1.00;99.90;;;;;;5002352;28;20064;-71
2023/04/05 05:25:06;;;;;;;10.45;5.15;;;-1.00;99.90;;;;;;5008832;28;20138;-71
2023/04/05 05:27:34;;;;;;;10.98;5.15;;;-1.00;99.90;;;;;;5003483;28;20148;-71
2023/04/05 05:30:00;;;;;;;14.60;5.95;;;-0.60;99.90;;;;;;5004316;28;20041;-71
2023/04/05 05:32:26;;;;;;;11.77;5.07;;;-1.00;99.90;;;;;;5001221;28;21680;-71
2023/04/05 05:34:51;;;;;;;12.95;5.60;;;-0.40;99.90;;;;;;5003401;28;20081;-70
2023/04/05 05:37:17;;;;;;;12.07;5.55;;;-1.00;99.90;;;;;;4999340;28;20056;-70
2023/04/05 05:39:46;;;;;;;11.95;5.47;;;-1.00;99.90;;;;;;5004853;28;20115;-70
2023/04/05 05:42:11;;;;;;;12.63;5.65;;;-1.00;99.90;;;;;;5003951;28;20084;-71
2023/04/05 05:44:37;;;;;;;11.68;5.68;;;-2.00;99.90;;;;;;5019239;28;20080;-70
2023/04/05 05:47:03;;;;;;;11.25;5.07;;;-1.00;99.90;;;;;;5002362;28;20701;-71
2023/04/05 05:49:30;;;;;;;12.60;6.22;;;-0.90;99.90;;;;;;5004162;28;20052;-70
2023/04/05 05:51:56;;;;;;;16.30;6.28;;;-0.80;99.90;;;;;;5002090;28;20180;-71
2023/04/05 05:54:22;;;;;;;15.07;6.03;;;-0.70;99.90;;;;;;5003344;28;20052;-71
2023/04/05 05:56:48;;;;;;;12.52;5.50;;;-0.40;99.90;;;;;;5003778;28;20636;-72
2023/04/05 05:59:14;;;;;;;14.57;6.50;;;-0.10;99.90;;;;;;5005708;28;20064;-71
2023/04/05 06:01:45;;;;;;;13.82;6.38;;;0.10;99.90;;;;;;5006628;28;20048;-71
2023/04/05 06:04:15;;;;;;;15.82;7.10;;;0.40;99.90;;;;;;5005892;28;20053;-71
2023/04/05 06:06:42;;;;;;;14.02;6.65;;;0.60;99.90;;;;;;4993346;28;20038;-72
2023/04/05 06:09:09;;;;;;;15.57;6.50;;;0.80;99.90;;;;;;5003499;28;20529;-71
2023/04/05 06:11:35;;;;;;;15.05;6.95;;;0.80;99.90;;;;;;4989065;28;20266;-72
2023/04/05 06:14:01;;;;;;;16.63;7.50;;;0.80;99.90;;;;;;5005706;28;20180;-72
2023/04/05 06:16:26;;;;;;;14.35;7.22;;;0.90;99.90;;;;;;5004538;28;20075;-73
2023/04/05 06:18:54;;;;;;;16.38;8.13;;;1.10;99.90;;;;;;5005952;28;20049;-72
2023/04/05 06:21:20;;;;;;;13.73;7.78;;;1.40;99.90;;;;;;5004455;28;20446;-72
2023/04/05 06:23:46;;;;;;;14.30;7.70;;;1.60;99.90;;;;;;5022127;28;20048;-72
2023/04/05 06:26:25;;;;;;;16.05;7.70;;;1.70;99.90;;;;;;5020847;28;20654;-73
2023/04/05 06:28:53;;;;;;;14.60;7.25;;;1.80;99.90;;;;;;4991578;28;20034;-71
2023/04/05 06:31:24;;;;;;;14.75;7.93;;;1.90;99.90;;;;;;5008470;28;20452;-72
2023/04/05 06:33:50;;;;;;;;;;;2.30;99.90;;;;;;5008912;28;20042;-72
2023/04/05 06:36:16;;;;;;;15.18;8.15;;;2.00;99.90;;;;;;5015249;28;19936;-71
2023/04/05 06:38:41;;;;;;;14.10;7.93;;;2.00;99.90;;;;;;5015506;28;20041;-72
2023/04/05 06:41:07;;;;;;;15.40;7.55;;;2.10;99.90;;;;;;5001098;28;20057;-72
2023/04/05 06:43:33;;;;;;;15.93;8.85;;;2.10;99.90;;;;;;5015236;28;20053;-71
2023/04/05 06:45:59;;;;;;;16.27;8.68;;;2.20;99.90;;;;;;4985322;28;20045;-73
2023/04/05 06:48:27;;;;;;;16.25;8.38;;;2.20;99.90;;;;;;5015499;28;20479;-72
2023/04/05 06:51:00;;;;;;;17.70;8.80;;;2.30;99.90;;;;;;5011887;28;20046;-73
2023/04/05 06:53:27;;;;;;;15.55;9.07;;;2.40;99.90;;;;;;4994666;28;20095;-73
2023/04/05 06:55:57;;;;;;;16.67;9.68;;;2.40;99.90;;;;;;5014238;28;20501;-73
2023/04/05 06:58:24;;;;;;;15.70;9.07;;;2.50;99.90;;;;;;5013778;28;20053;-72
2023/04/05 07:00:50;;;;;;;16.55;8.65;;;2.60;99.90;;;;;;5017690;28;20053;-73
2023/04/05 07:03:17;;;;;;;15.07;9.52;;;3.00;99.90;;;;;;5017740;28;20041;-73
2023/04/05 07:05:53;;;;;;;19.05;9.90;;;2.70;99.90;;;;;;5015830;28;20100;-74
2023/04/05 07:08:20;;;;;;;17.25;8.93;;;2.90;99.90;;;;;;5015992;28;20540;-73
2023/04/05 07:10:48;;;;;;;15.25;8.65;;;2.90;99.90;;;;;;5009164;28;20076;-74
2023/04/05 07:13:13;;;;;;;16.20;9.10;;;3.00;99.90;;;;;;4989983;28;20057;-73
2023/04/05 07:15:39;;;;;;;18.40;9.57;;;3.10;99.90;;;;;;5013789;28;20033;-73
2023/04/05 07:18:05;;;;;;;15.50;9.20;;;3.20;99.90;;;;;;5013086;28;20041;-75
2023/04/05 07:20:31;;;;;;;17.90;9.13;;;3.40;99.90;;;;;;5007511;28;20120;-75
2023/04/05 07:22:57;;;;;;;14.70;8.45;;;3.50;99.90;;;;;;5012254;28;20053;-74
2023/04/05 07:25:23;;;;;;;14.95;9.10;;;3.60;99.90;;;;;;5010000;28;20057;-74
2023/04/05 07:27:49;;;;;;;15.75;8.32;;;3.90;99.90;;;;;;5014984;28;20044;-74
2023/04/05 07:30:15;;;;;;;15.85;8.43;;;4.40;99.90;;;;;;5012050;28;20063;-75
2023/04/05 07:32:40;;;;;;;18.88;8.88;;;4.20;99.90;;;;;;5013417;28;20112;-75
2023/04/05 07:35:07;;;;;;;13.68;8.18;;;4.30;99.90;;;;;;5014351;28;20189;-74
2023/04/05 07:37:33;;;;;;;18.25;9.20;;;4.50;99.90;;;;;;5008600;28;20102;-74
2023/04/05 07:39:58;;;;;;;17.05;8.77;;;4.60;99.90;;;;;;5009791;28;20065;-75
2023/04/05 07:42:26;;;;;;;14.82;8.45;;;4.80;99.90;;;;;;4996294;28;20049;-75
2023/04/05 07:44:52;;;;;;;16.90;9.25;;;4.90;99.90;;;;;;5010302;28;20117;-75
2023/04/05 07:47:18;;;;;;;18.75;9.15;;;5.10;99.90;;;;;;5012550;28;20102;-75
2023/04/05 07:49:44;;;;;;;18.08;9.05;;;5.20;99.90;;;;;;5015225;28;20050;-75
2023/04/05 07:52:10;;;;;;;16.60;8.68;;;5.40;99.90;;;;;;5014132;28;20695;-75
2023/04/05 07:54:38;;;;;;;15.43;8.75;;;5.50;99.90;;;;;;5015386;28;20060;-75
2023/04/05 07:57:05;;;;;;;13.20;8.38;;;5.60;99.90;;;;;;5014291;28;20049;-76
2023/04/05 07:59:31;;;;;;;16.67;8.65;;;6.10;99.90;;;;;;5006772;28;20050;-76
2023/04/05 08:01:56;;;;;;;15.25;8.38;;;5.80;99.90;;;;;;5006045;28;20559;-75
2023/04/05 08:04:24;;;;;;;13.95;7.93;;;6.00;99.90;;;;;;5008812;28;20129;-75
2023/04/05 08:06:50;;;;;;;14.88;8.30;;;5.90;99.90;;;;;;4983663;28;20505;-75
2023/04/05 08:09:16;;;;;;;13.43;8.43;;;6.10;99.90;;;;;;4999814;28;20076;-75
2023/04/05 08:11:43;;;;;;;14.00;8.13;;;6.20;99.90;;;;;;5004134;28;20041;-75
2023/04/05 08:14:09;;;;;;;16.58;8.60;;;6.20;99.90;;;;;;5003950;28;20706;-76
2023/04/05 08:16:35;;;;;;;12.85;7.30;;;6.40;99.90;;;;;;5004238;28;20107;-76
2023/04/05 08:19:00;;;;;;;12.73;7.45;;;6.40;99.90;;;;;;5002094;28;20051;-76
2023/04/05 08:21:26;;;;;;;13.40;7.20;;;6.90;99.90;;;;;;5003436;28;20053;-76
2023/04/05 08:23:53;;;;;;;13.23;7.70;;;6.40;99.90;;;;;;4991728;28;20042;-76
2023/04/05 08:26:18;;;;;;;17.17;7.65;;;6.50;99.90;;;;;;5004737;28;20074;-76
2023/04/05 08:28:44;;;;;;;13.32;7.43;;;6.60;99.90;;;;;;5002689;28;20195;-76
2023/04/05 08:31:10;;;;;;;12.18;7.13;;;6.70;99.90;;;;;;5003301;28;20038;-76
2023/04/05 08:33:36;;;;;;;12.55;6.10;;;6.80;99.90;;;;;;5001930;28;20081;-76
2023/04/05 08:36:06;;;;;;;11.60;5.85;;;6.90;99.90;;;;;;5000253;28;20133;-76
2023/04/05 08:38:35;;;;;;;12.32;5.55;;;7.00;99.90;;;;;;5002500;28;20053;-77
2023/04/05 08:41:33;;;;;;;11.38;5.35;;;7.10;99.90;;;;;;5022728;28;20045;-77
2023/04/05 08:44:04;;;;;;;9.23;5.18;;;7.20;99.90;;;;;;4989248;28;20052;-77
2023/04/05 08:46:32;;;;;;;12.98;5.57;;;7.20;99.90;;;;;;5005290;28;20053;-76
2023/04/05 08:48:59;;;;;;;9.35;5.60;;;7.20;99.90;;;;;;5025332;28;20077;-76
2023/04/05 08:51:25;;;;;;;13.85;5.72;;;7.40;99.90;;;;;;5016439;28;20484;-76
2023/04/05 08:53:52;;;;;;;11.45;6.22;;;7.50;99.90;;;;;;5024506;28;20547;-76
2023/04/05 08:56:31;;;;;;;11.65;5.93;;;7.50;99.90;;;;;;5032332;28;20823;-76
2023/04/05 08:59:04;;;;;;;10.68;5.35;;;7.60;99.90;;;;;;5027460;28;20105;-76
2023/04/05 09:01:31;;;;;;;11.00;5.47;;;7.60;99.90;;;;;;5025226;28;20136;-76
2023/04/05 09:04:00;;;;;;;12.00;4.95;;;7.70;99.90;;;;;;5043950;28;20096;-77
2023/04/05 09:06:27;;;;;;;10.38;5.15;;;7.70;99.90;;;;;;5052432;28;20130;-76
2023/04/05 09:08:57;;;;;;;8.77;5.07;;;7.90;99.90;;;;;;5028441;28;20057;-76
2023/04/05 09:11:23;;;;;;;11.25;5.00;;;7.90;99.90;;;;;;5013289;28;20053;-76
2023/04/05 09:13:49;;;;;;;9.73;5.38;;;7.90;99.90;;;;;;5029770;28;20092;-76
2023/04/05 09:16:16;;;;;;;10.38;5.05;;;8.00;99.90;;;;;;5031196;28;20071;-77
2023/04/05 09:18:42;;;;;;;11.18;4.82;;;8.00;99.90;;;;;;5046922;28;20044;-76
2023/04/05 09:21:08;;;;;;;10.82;4.93;;;8.00;99.90;;;;;;5022090;28;20633;-76
2023/04/05 09:23:35;;;;;;;11.25;5.20;;;8.10;99.90;;;;;;5014147;28;20041;-76
2023/04/05 09:26:18;;;;;;;9.18;4.57;;;8.10;99.90;;;;;;5040463;28;20045;-77
2023/04/05 09:28:44;;;;;;;11.65;4.90;;;8.10;99.90;;;;;;5032695;28;20037;-77
2023/04/05 09:31:28;;;;;;;10.48;4.38;;;8.10;99.90;;;;;;5049024;28;20045;-76
2023/04/05 09:33:57;;;;;;;7.82;4.50;;;8.10;99.90;;;;;;5030956;28;20397;-77
2023/04/05 09:36:23;;;;;;;9.38;4.72;;;8.10;99.90;;;;;;5040686;28;20067;-77
2023/04/05 09:38:49;;;;;;;10.93;4.60;;;8.10;99.90;;;;;;5025074;28;20042;-77
2023/04/05 09:41:14;;;;;;;8.38;4.32;;;8.20;99.90;;;;;;5035347;28;20048;-78
2023/04/05 09:43:42;;;;;;;9.18;4.47;;;8.30;99.90;;;;;;5030514;28;20567;-77
2023/04/05 09:46:32;;;;;;;10.35;4.97;;;8.40;99.90;;;;;;5027993;28;20048;-78
2023/04/05 09:48:59;;;;;;;8.43;3.70;;;8.40;99.90;;;;;;5038927;28;20037;-79
2023/04/05 09:51:32;;;;;;;10.88;4.38;;;8.50;99.90;;;;;;5039138;28;20046;-78
2023/04/05 09:54:09;;;;;;;8.20;4.40;;;8.60;99.90;;;;;;5005469;28;20046;-80
2023/04/05 09:56:37;;;;;;;10.10;4.80;;;8.50;99.90;;;;;;5020888;28;20095;-78
2023/04/05 09:59:10;;;;;;;12.68;4.78;;;8.60;99.90;;;;;;5027568;28;20059;-78
2023/04/05 10:01:37;;;;;;;10.43;4.47;;;8.60;99.90;;;;;;5037388;28;20144;-78
2023/04/05 10:04:03;;;;;;;10.90;4.50;;;8.60;99.90;;;;;;4994756;28;20041;-80
2023/04/05 10:06:40;;;;;;;8.55;4.22;;;8.60;99.90;;;;;;5032675;28;20048;-77
2023/04/05 10:09:07;;;;;;;9.10;4.60;;;8.60;99.90;;;;;;5008147;28;20077;-77
2023/04/05 10:11:33;;;;;;;9.00;4.10;;;8.60;99.90;;;;;;5024412;28;20049;-76
2023/04/05 10:14:07;;;;;;;9.48;4.07;;;8.70;99.90;;;;;;5029932;28;21174;-79
2023/04/05 10:16:43;;;;;;;10.85;4.35;;;8.70;99.30;;;;;;5031747;28;20136;-76
2023/04/05 10:19:21;;;;;;;9.20;4.38;;;8.80;99.40;;;;;;5004521;28;20049;-78
2023/04/05 10:21:49;;;;;;;8.80;4.40;;;8.80;99.10;;;;;;5035347;28;20051;-79
2023/04/05 10:24:30;;;;;;;11.00;4.78;;;9.00;99.90;;;;;;5000026;28;20091;-78
2023/04/05 10:27:06;;;;;;;10.35;4.43;;;9.00;99.80;;;;;;5036167;28;20056;-77
2023/04/05 10:30:05;;;;;;;9.80;4.57;;;9.00;99.30;;;;;;5013322;28;20168;-77
2023/04/05 10:32:38;;;;;;;11.07;4.75;;;9.10;99.70;;;;;;5025025;28;20044;-78
2023/04/05 10:35:15;;;;;;;10.70;4.50;;;9.20;98.70;;;;;;5013425;28;20044;-78
2023/04/05 10:37:58;;;;;;;8.18;4.55;;;9.20;99.00;;;;;;5022317;28;20082;-78
2023/04/05 10:40:29;;;;;;;8.95;4.60;;;9.20;98.40;;;;;;5043288;28;20067;-77
2023/04/05 10:42:55;;;;;;;12.13;4.75;;;9.20;98.20;;;;;;5027994;28;20045;-78
2023/04/05 10:45:22;;;;;;;9.68;4.80;;;9.20;98.30;;;;;;5046719;28;20489;-79
2023/04/05 10:48:13;;;;;;;9.35;4.53;;;9.20;97.20;;;;;;5036417;28;20049;-80
2023/04/05 10:50:39;;;;;;;8.15;4.22;;;9.10;97.50;;;;;;5027569;28;20060;-78
2023/04/05 10:53:06;;;;;;;11.15;5.35;;;9.10;98.20;;;;;;5027126;28;20524;-79
2023/04/05 10:55:34;;;;;;;9.23;4.82;;;9.40;97.80;;;;;;5024401;28;20448;-80
2023/04/05 10:58:00;;;;;;;11.23;4.95;;;9.10;97.70;;;;;;5025134;28;20033;-78
2023/04/05 11:00:26;;;;;;;11.38;5.15;;;9.00;97.50;;;;;;5023187;28;20076;-78
2023/04/05 11:02:55;;;;;;;11.63;5.35;;;9.00;98.30;;;;;;5029965;28;20090;-79
2023/04/05 11:05:36;;;;;;;8.02;4.70;;;9.00;98.00;;;;;;5026884;28;20037;-78
2023/04/05 11:08:10;;;;;;;11.23;5.78;;;9.10;97.90;;;;;;5023505;28;20094;-78
2023/04/05 11:10:37;;;;;;;10.23;4.68;;;9.10;97.70;;;;;;5044207;28;20045;-77
2023/04/05 11:13:05;;;;;;;11.45;5.18;;;9.10;97.20;;;;;;5031289;28;20443;-79
2023/04/05 11:15:35;;;;;;;10.90;4.93;;;9.20;97.30;;;;;;5036049;28;20135;-79
2023/04/05 11:18:10;;;;;;;11.73;5.22;;;9.30;97.20;;;;;;5041031;28;20052;-79
2023/04/05 11:21:05;;;;;;;9.93;4.90;;;9.30;96.20;;;;;;5018016;28;20186;-80
2023/04/05 11:23:31;;;;;;;7.85;4.35;;;9.30;95.40;;;;;;5031078;28;20057;-79
2023/04/05 11:26:06;;;;;;;11.45;5.03;;;9.30;96.30;;;;;;5043176;28;20544;-78
2023/04/05 11:28:38;;;;;;;9.52;4.63;;;9.30;96.70;;;;;;5048503;28;20047;-80
2023/04/05 11:31:18;;;;;;;8.45;4.50;;;9.30;95.70;;;;;;5027914;28;20368;-77
2023/04/05 11:33:44;;;;;;;9.90;4.72;;;9.40;95.80;;;;;;5046684;28;20041;-78
2023/04/05 11:36:10;;;;;;;11.52;5.20;;;9.40;95.70;;;;;;5020571;28;20041;-76
2023/04/05 11:38:41;;;;;;;11.38;5.20;;;9.40;96.10;;;;;;5046914;28;20386;-79
2023/04/05 11:41:11;;;;;;;11.50;4.38;;;9.50;95.30;;;;;;5023605;28;20351;-79
2023/04/05 11:43:37;;;;;;;10.53;4.60;;;9.50;95.30;;;;;;5015795;28;20111;-77
2023/04/05 11:46:06;;;;;;;10.10;4.65;;;9.60;95.60;;;;;;5020794;28;20037;-77
2023/04/05 11:48:31;;;;;;;10.55;4.97;;;9.60;95.60;;;;;;5027159;28;20045;-77
2023/04/05 11:50:57;;;;;;;10.45;4.60;;;9.70;95.50;;;;;;5011004;28;20043;-78
2023/04/05 11:53:23;;;;;;;9.25;4.25;;;9.80;94.90;;;;;;5014613;28;20092;-78
2023/04/05 11:55:50;;;;;;;9.18;4.50;;;9.80;94.90;;;;;;5046232;28;20036;-78
2023/04/05 11:58:17;;;;;;;11.23;4.90;;;9.80;95.20;;;;;;5044449;28;20130;-79
2023/04/05 12:00:45;;;;;;;9.63;5.13;;;9.80;95.10;;;;;;5018528;28;20132;-80
2023/04/05 12:03:15;;;;;;;14.30;4.72;;;9.90;94.70;;;;;;5010786;28;20044;-78
2023/04/05 12:05:51;;;;;;;10.77;4.65;;;9.90;94.20;;;;;;5029729;28;20128;-79
2023/04/05 12:08:18;;;;;;;9.60;4.65;;;9.90;93.50;;;;;;5038274;28;20100;-78
2023/04/05 12:10:52;;;;;;;9.52;4.75;;;9.90;94.70;;;;;;5024282;28;20037;-79
2023/04/05 12:13:27;;;;;;;9.82;5.35;;;9.90;94.30;;;;;;5008199;28;20045;-78
2023/04/05 12:15:56;;;;;;;10.07;4.57;;;10.00;94.50;;;;;;5030361;28;20057;-79
2023/04/05 12:18:23;;;;;;;11.15;4.75;;;9.90;93.90;;;;;;5045357;28;20068;-78
2023/04/05 12:20:49;;;;;;;9.85;4.57;;;9.90;94.30;;;;;;5032409;28;20068;-78
2023/04/05 12:23:16;;;;;;;9.80;5.03;;;10.00;93.60;;;;;;5027418;28;20116;-79
2023/04/05 12:25:45;;;;;;;8.85;4.38;;;10.00;93.40;;;;;;5015886;28;20413;-78
2023/04/05 12:28:15;;;;;;;9.23;4.50;;;10.10;94.40;;;;;;5044369;28;20040;-78
2023/04/05 12:30:56;;;;;;;7.38;4.07;;;10.20;94.80;;;;;;5040864;28;20068;-78
2023/04/05 12:33:30;;;;;;;10.10;4.45;;;10.30;94.10;;;;;;5035132;28;20122;-79
2023/04/05 12:35:57;;;;;;;8.73;4.35;;;10.30;93.90;;;;;;5038935;28;20047;-78
2023/04/05 12:38:28;;;;;;;10.32;4.93;;;10.40;93.10;;;;;;5030112;28;20257;-79
2023/04/05 12:41:02;;;;;;;10.63;4.88;;;10.30;93.30;;;;;;5016093;28;20048;-79
2023/04/05 12:43:38;;;;;;;9.48;4.53;;;10.30;92.70;;;;;;5034864;28;20099;-79
2023/04/05 12:46:15;;;;;;;10.98;4.90;;;10.30;93.20;;;;;;5036760;28;20044;-79
2023/04/05 12:48:41;;;;;;;8.55;4.53;;;10.30;92.70;;;;;;5033358;28;20056;-78
2023/04/05 12:51:15;;;;;;;11.60;5.18;;;10.30;93.40;;;;;;5051417;28;20049;-78
2023/04/05 12:53:48;;;;;;;10.43;4.82;;;10.30;92.20;;;;;;5030668;28;20061;-79
2023/04/05 12:56:17;;;;;;;11.35;5.95;;;10.30;93.20;;;;;;5050606;28;20040;-79